Carimona, Minnesota
Current Conditions -  °F | °C
As of 8:35 AM on Monday 26 Jan 2015 (Local Time) from KFKA Reporting Station
Overcast Overcast  
Wind Chill: 12°   Ceiling: 600
Heat Index: 24°   Visibility: 7mi
Dew Point: 22°   Wind: 14mph
Humidity: 93%   Direction: 190°S
Pressure: 29.75"   Gusts: 22mph
Location:  43.6343°N, 92.1426°W
Report Text: KFKA 261435Z AUTO 19012G19KT 7SM OVC006 M04/M05 A2975 RMK AO2 T10441054
Loading
Personal Weather Stations






























Interactive Weather Map New forecast layout! Learn more

10-Day Weather Forecast

Advertisements
Track Severe Weather on mobile